sensor_id;sensor_type;location;lat;lon;timestamp;P1;durP1;ratioP1;P2;durP2;ratioP2
2652;SDS011;1336;48.692;9.144;2023-02-28T06:00:45;7.07;;;5.80;;
2652;SDS011;1336;48.692;9.144;2023-02-28T06:01:38;7.80;;;7.00;;
2652;SDS011;1336;48.692;9.144;2023-02-28T06:02:29;6.35;;;5.75;;
2652;SDS011;1336;48.692;9.144;2023-02-28T06:03:21;6.25;;;5.65;;
2652;SDS011;1336;48.692;9.144;2023-02-28T06:04:12;6.60;;;5.90;;
2652;SDS011;1336;48.692;9.144;2023-02-28T06:05:05;6.70;;;6.05;;
2652;SDS011;1336;48.692;9.144;2023-02-28T06:05:58;6.47;;;5.88;;
2652;SDS011;1336;48.692;9.144;2023-02-28T06:06:50;6.45;;;5.85;;
2652;SDS011;1336;48.692;9.144;2023-02-28T06:07:41;6.40;;;5.80;;
2652;SDS011;1336;48.692;9.144;2023-02-28T06:08:33;8.40;;;6.18;;
2652;SDS011;1336;48.692;9.144;2023-02-28T06:09:23;7.30;;;6.60;;
2652;SDS011;1336;48.692;9.144;2023-02-28T06:10:15;6.70;;;5.97;;
2652;SDS011;1336;48.692;9.144;2023-02-28T06:11:06;6.60;;;6.00;;
2652;SDS011;1336;48.692;9.144;2023-02-28T06:11:58;9.05;;;6.90;;
2652;SDS011;1336;48.692;9.144;2023-02-28T06:12:49;6.40;;;5.80;;
2652;SDS011;1336;48.692;9.144;2023-02-28T06:13:41;6.80;;;6.07;;
2652;SDS011;1336;48.692;9.144;2023-02-28T06:14:32;7.00;;;6.20;;
2652;SDS011;1336;48.692;9.144;2023-02-28T06:15:26;7.05;;;5.90;;
2652;SDS011;1336;48.692;9.144;2023-02-28T06:16:18;6.90;;;6.20;;
2652;SDS011;1336;48.692;9.144;2023-02-28T06:17:10;6.38;;;5.75;;
2652;SDS011;1336;48.692;9.144;2023-02-28T06:18:00;6.20;;;5.63;;
2652;SDS011;1336;48.692;9.144;2023-02-28T06:18:52;6.95;;;6.28;;
2652;SDS011;1336;48.692;9.144;2023-02-28T06:19:46;11.10;;;6.63;;
2652;SDS011;1336;48.692;9.144;2023-02-28T06:20:38;7.20;;;6.50;;
2652;SDS011;1336;48.692;9.144;2023-02-28T06:21:29;7.77;;;7.07;;
2652;SDS011;1336;48.692;9.144;2023-02-28T06:22:21;6.63;;;5.90;;
2652;SDS011;1336;48.692;9.144;2023-02-28T06:23:12;6.60;;;6.00;;
2652;SDS011;1336;48.692;9.144;2023-02-28T06:24:04;6.35;;;5.75;;
2652;SDS011;1336;48.692;9.144;2023-02-28T06:24:55;7.10;;;6.50;;
2652;SDS011;1336;48.692;9.144;2023-02-28T06:25:47;7.70;;;6.25;;
2652;SDS011;1336;48.692;9.144;2023-02-28T06:26:39;7.00;;;6.40;;
2652;SDS011;1336;48.692;9.144;2023-02-28T06:27:31;7.28;;;6.57;;
2652;SDS011;1336;48.692;9.144;2023-02-28T06:28:22;7.53;;;6.78;;
2652;SDS011;1336;48.692;9.144;2023-02-28T06:29:14;7.75;;;6.82;;
2652;SDS011;1336;48.692;9.144;2023-02-28T06:30:07;7.10;;;6.50;;
2652;SDS011;1336;48.692;9.144;2023-02-28T06:31:05;7.55;;;6.80;;
2652;SDS011;1336;48.692;9.144;2023-02-28T06:31:58;7.40;;;6.70;;
2652;SDS011;1336;48.692;9.144;2023-02-28T06:32:50;7.28;;;6.32;;
2652;SDS011;1336;48.692;9.144;2023-02-28T06:33:42;6.78;;;6.18;;
2652;SDS011;1336;48.692;9.144;2023-02-28T06:34:35;7.35;;;6.75;;
2652;SDS011;1336;48.692;9.144;2023-02-28T06:35:26;7.03;;;6.40;;
2652;SDS011;1336;48.692;9.144;2023-02-28T06:36:18;8.40;;;6.63;;
2652;SDS011;1336;48.692;9.144;2023-02-28T06:37:08;7.87;;;6.70;;
2652;SDS011;1336;48.692;9.144;2023-02-28T06:38:00;7.50;;;6.75;;
2652;SDS011;1336;48.692;9.144;2023-02-28T06:38:51;7.53;;;6.82;;
2652;SDS011;1336;48.692;9.144;2023-02-28T06:39:45;8.90;;;6.55;;
2652;SDS011;1336;48.692;9.144;2023-02-28T06:40:36;7.80;;;7.00;;
2652;SDS011;1336;48.692;9.144;2023-02-28T06:41:28;8.02;;;6.90;;
2652;SDS011;1336;48.692;9.144;2023-02-28T06:42:19;7.85;;;7.15;;
2652;SDS011;1336;48.692;9.144;2023-02-28T06:43:11;7.20;;;6.50;;
2652;SDS011;1336;48.692;9.144;2023-02-28T06:44:03;8.45;;;7.35;;
2652;SDS011;1336;48.692;9.144;2023-02-28T06:44:55;7.75;;;6.50;;
2652;SDS011;1336;48.692;9.144;2023-02-28T06:45:47;8.80;;;7.32;;
2652;SDS011;1336;48.692;9.144;2023-02-28T06:46:39;7.55;;;6.93;;
2652;SDS011;1336;48.692;9.144;2023-02-28T06:47:32;6.82;;;6.20;;
2652;SDS011;1336;48.692;9.144;2023-02-28T06:48:23;7.63;;;6.93;;
2652;SDS011;1336;48.692;9.144;2023-02-28T06:49:15;8.07;;;7.28;;
2652;SDS011;1336;48.692;9.144;2023-02-28T06:50:07;9.27;;;7.90;;
2652;SDS011;1336;48.692;9.144;2023-02-28T06:51:03;8.20;;;7.40;;
2652;SDS011;1336;48.692;9.144;2023-02-28T06:51:55;8.65;;;7.28;;
2652;SDS011;1336;48.692;9.144;2023-02-28T06:52:47;7.85;;;7.05;;
2652;SDS011;1336;48.692;9.144;2023-02-28T06:53:37;7.80;;;7.10;;
2652;SDS011;1336;48.692;9.144;2023-02-28T06:54:29;10.05;;;7.18;;
2652;SDS011;1336;48.692;9.144;2023-02-28T06:55:20;8.07;;;7.10;;
2652;SDS011;1336;48.692;9.144;2023-02-28T06:56:13;11.20;;;8.50;;
2652;SDS011;1336;48.692;9.144;2023-02-28T06:57:05;11.18;;;8.50;;
2652;SDS011;1336;48.692;9.144;2023-02-28T06:57:56;8.25;;;7.40;;
2652;SDS011;1336;48.692;9.144;2023-02-28T06:58:47;9.27;;;7.50;;
2652;SDS011;1336;48.692;9.144;2023-02-28T06:59:40;9.13;;;8.23;;
2652;SDS011;1336;48.692;9.144;2023-02-28T07:00:31;10.30;;;7.37;;
2652;SDS011;1336;48.692;9.144;2023-02-28T07:01:23;9.32;;;7.30;;
2652;SDS011;1336;48.692;9.144;2023-02-28T07:02:14;9.35;;;8.45;;
2652;SDS011;1336;48.692;9.144;2023-02-28T07:03:07;8.75;;;7.57;;
2652;SDS011;1336;48.692;9.144;2023-02-28T07:03:58;8.55;;;7.65;;
2652;SDS011;1336;48.692;9.144;2023-02-28T07:04:50;9.15;;;7.45;;
2652;SDS011;1336;48.692;9.144;2023-02-28T07:05:40;7.53;;;6.93;;
2652;SDS011;1336;48.692;9.144;2023-02-28T07:06:33;8.93;;;7.90;;
2652;SDS011;1336;48.692;9.144;2023-02-28T07:07:24;8.80;;;8.00;;
2652;SDS011;1336;48.692;9.144;2023-02-28T07:08:15;8.07;;;7.38;;
2652;SDS011;1336;48.692;9.144;2023-02-28T07:09:06;10.30;;;7.53;;
2652;SDS011;1336;48.692;9.144;2023-02-28T07:09:58;7.30;;;6.60;;
2652;SDS011;1336;48.692;9.144;2023-02-28T07:10:51;9.43;;;7.73;;
2652;SDS011;1336;48.692;9.144;2023-02-28T07:11:44;10.13;;;8.02;;
2652;SDS011;1336;48.692;9.144;2023-02-28T07:12:34;8.37;;;7.53;;
2652;SDS011;1336;48.692;9.144;2023-02-28T07:13:28;7.80;;;6.90;;
2652;SDS011;1336;48.692;9.144;2023-02-28T07:14:19;8.23;;;7.50;;
2652;SDS011;1336;48.692;9.144;2023-02-28T07:15:12;9.05;;;7.90;;
2652;SDS011;1336;48.692;9.144;2023-02-28T07:16:03;8.17;;;7.40;;
2652;SDS011;1336;48.692;9.144;2023-02-28T07:16:57;9.00;;;8.10;;
2652;SDS011;1336;48.692;9.144;2023-02-28T07:17:48;8.53;;;7.53;;
2652;SDS011;1336;48.692;9.144;2023-02-28T07:18:41;7.95;;;7.25;;
2652;SDS011;1336;48.692;9.144;2023-02-28T07:19:32;8.13;;;7.40;;
2652;SDS011;1336;48.692;9.144;2023-02-28T07:20:24;9.18;;;6.88;;
2652;SDS011;1336;48.692;9.144;2023-02-28T07:21:15;9.07;;;8.18;;
2652;SDS011;1336;48.692;9.144;2023-02-28T07:22:07;8.07;;;7.38;;
2652;SDS011;1336;48.692;9.144;2023-02-28T07:22:58;9.77;;;8.00;;
2652;SDS011;1336;48.692;9.144;2023-02-28T07:23:49;8.32;;;7.53;;
2652;SDS011;1336;48.692;9.144;2023-02-28T07:24:41;8.27;;;7.57;;
2652;SDS011;1336;48.692;9.144;2023-02-28T07:25:33;7.53;;;6.80;;
2652;SDS011;1336;48.692;9.144;2023-02-28T07:26:23;9.20;;;8.13;;
2652;SDS011;1336;48.692;9.144;2023-02-28T07:27:15;8.98;;;7.90;;
2652;SDS011;1336;48.692;9.144;2023-02-28T07:28:13;8.55;;;7.75;;
2652;SDS011;1336;48.692;9.144;2023-02-28T07:29:05;14.50;;;8.38;;
2652;SDS011;1336;48.692;9.144;2023-02-28T07:29:56;8.73;;;7.70;;
2652;SDS011;1336;48.692;9.144;2023-02-28T07:30:51;9.05;;;7.65;;
2652;SDS011;1336;48.692;9.144;2023-02-28T07:31:42;9.77;;;7.97;;
2652;SDS011;1336;48.692;9.144;2023-02-28T07:32:33;8.48;;;7.65;;
2652;SDS011;1336;48.692;9.144;2023-02-28T07:33:27;8.57;;;7.82;;
2652;SDS011;1336;48.692;9.144;2023-02-28T07:34:20;10.73;;;8.40;;
2652;SDS011;1336;48.692;9.144;2023-02-28T07:35:11;9.23;;;8.10;;
2652;SDS011;1336;48.692;9.144;2023-02-28T07:36:05;9.77;;;8.77;;
2652;SDS011;1336;48.692;9.144;2023-02-28T07:36:58;9.60;;;8.27;;
2652;SDS011;1336;48.692;9.144;2023-02-28T07:37:53;8.68;;;7.88;;
2652;SDS011;1336;48.692;9.144;2023-02-28T07:38:45;9.07;;;8.27;;
2652;SDS011;1336;48.692;9.144;2023-02-28T07:39:38;8.93;;;8.13;;
2652;SDS011;1336;48.692;9.144;2023-02-28T07:40:29;8.77;;;7.97;;
2652;SDS011;1336;48.692;9.144;2023-02-28T07:41:21;8.68;;;7.88;;
2652;SDS011;1336;48.692;9.144;2023-02-28T07:42:13;9.25;;;8.27;;
2652;SDS011;1336;48.692;9.144;2023-02-28T07:43:05;9.30;;;8.50;;
2652;SDS011;1336;48.692;9.144;2023-02-28T07:43:56;9.17;;;8.23;;
2652;SDS011;1336;48.692;9.144;2023-02-28T07:44:49;9.20;;;8.35;;
2652;SDS011;1336;48.692;9.144;2023-02-28T07:45:41;10.13;;;8.98;;
2652;SDS011;1336;48.692;9.144;2023-02-28T07:46:33;8.45;;;7.72;;
2652;SDS011;1336;48.692;9.144;2023-02-28T07:47:25;8.30;;;7.55;;
2652;SDS011;1336;48.692;9.144;2023-02-28T07:48:17;9.60;;;8.70;;
2652;SDS011;1336;48.692;9.144;2023-02-28T07:49:07;9.30;;;8.40;;
2652;SDS011;1336;48.692;9.144;2023-02-28T07:50:00;9.52;;;8.45;;
2652;SDS011;1336;48.692;9.144;2023-02-28T07:50:53;9.07;;;8.27;;
2652;SDS011;1336;48.692;9.144;2023-02-28T07:51:46;9.80;;;8.90;;
2652;SDS011;1336;48.692;9.144;2023-02-28T07:52:37;9.43;;;8.43;;
2652;SDS011;1336;48.692;9.144;2023-02-28T07:53:29;8.43;;;7.72;;
2652;SDS011;1336;48.692;9.144;2023-02-28T07:54:20;10.50;;;8.85;;
2652;SDS011;1336;48.692;9.144;2023-02-28T07:55:11;9.68;;;8.77;;
2652;SDS011;1336;48.692;9.144;2023-02-28T07:56:03;11.77;;;8.80;;
2652;SDS011;1336;48.692;9.144;2023-02-28T07:56:56;9.25;;;8.45;;
2652;SDS011;1336;48.692;9.144;2023-02-28T07:57:47;9.13;;;8.23;;
2652;SDS011;1336;48.692;9.144;2023-02-28T07:58:39;10.88;;;8.70;;
2652;SDS011;1336;48.692;9.144;2023-02-28T07:59:29;8.87;;;8.00;;
2652;SDS011;1336;48.692;9.144;2023-02-28T08:00:21;9.57;;;8.63;;
2652;SDS011;1336;48.692;9.144;2023-02-28T08:01:13;10.13;;;9.20;;
2652;SDS011;1336;48.692;9.144;2023-02-28T08:02:05;9.82;;;8.30;;
2652;SDS011;1336;48.692;9.144;2023-02-28T08:02:56;9.27;;;8.30;;
2652;SDS011;1336;48.692;9.144;2023-02-28T08:03:48;10.00;;;9.05;;
2652;SDS011;1336;48.692;9.144;2023-02-28T08:04:38;11.97;;;8.20;;
2652;SDS011;1336;48.692;9.144;2023-02-28T08:05:31;9.20;;;8.27;;
2652;SDS011;1336;48.692;9.144;2023-02-28T08:06:23;11.30;;;9.20;;
2652;SDS011;1336;48.692;9.144;2023-02-28T08:07:16;10.10;;;9.10;;
2652;SDS011;1336;48.692;9.144;2023-02-28T08:08:07;15.05;;;9.75;;
2652;SDS011;1336;48.692;9.144;2023-02-28T08:08:59;10.35;;;9.18;;
2652;SDS011;1336;48.692;9.144;2023-02-28T08:09:50;12.23;;;7.93;;
2652;SDS011;1336;48.692;9.144;2023-02-28T08:10:42;9.90;;;9.00;;
2652;SDS011;1336;48.692;9.144;2023-02-28T08:11:33;11.02;;;9.25;;
2652;SDS011;1336;48.692;9.144;2023-02-28T08:12:26;9.32;;;8.43;;
2652;SDS011;1336;48.692;9.144;2023-02-28T08:13:17;10.90;;;9.25;;
2652;SDS011;1336;48.692;9.144;2023-02-28T08:14:08;10.45;;;9.35;;
2652;SDS011;1336;48.692;9.144;2023-02-28T08:14:59;9.63;;;8.73;;
2652;SDS011;1336;48.692;9.144;2023-02-28T08:15:51;10.45;;;9.45;;
2652;SDS011;1336;48.692;9.144;2023-02-28T08:16:42;9.80;;;8.90;;
2652;SDS011;1336;48.692;9.144;2023-02-28T08:17:33;9.38;;;8.48;;
2652;SDS011;1336;48.692;9.144;2023-02-28T08:18:24;9.57;;;8.67;;
2652;SDS011;1336;48.692;9.144;2023-02-28T08:19:16;9.35;;;8.45;;
2652;SDS011;1336;48.692;9.144;2023-02-28T08:20:08;10.57;;;9.47;;
2652;SDS011;1336;48.692;9.144;2023-02-28T08:21:06;9.65;;;8.75;;
2652;SDS011;1336;48.692;9.144;2023-02-28T08:21:57;9.57;;;8.68;;
2652;SDS011;1336;48.692;9.144;2023-02-28T08:22:49;10.38;;;9.38;;
2652;SDS011;1336;48.692;9.144;2023-02-28T08:23:40;9.83;;;8.90;;
2652;SDS011;1336;48.692;9.144;2023-02-28T08:24:32;10.32;;;9.32;;
2652;SDS011;1336;48.692;9.144;2023-02-28T08:25:23;10.38;;;9.43;;
2652;SDS011;1336;48.692;9.144;2023-02-28T08:26:15;9.70;;;8.70;;
2652;SDS011;1336;48.692;9.144;2023-02-28T08:27:05;10.03;;;8.40;;
2652;SDS011;1336;48.692;9.144;2023-02-28T08:27:57;10.13;;;9.00;;
2652;SDS011;1336;48.692;9.144;2023-02-28T08:28:48;9.80;;;8.80;;
2652;SDS011;1336;48.692;9.144;2023-02-28T08:29:40;9.80;;;8.80;;
2652;SDS011;1336;48.692;9.144;2023-02-28T08:30:31;10.10;;;9.10;;
2652;SDS011;1336;48.692;9.144;2023-02-28T08:31:22;9.70;;;8.60;;
2652;SDS011;1336;48.692;9.144;2023-02-28T08:32:14;9.85;;;8.85;;
2652;SDS011;1336;48.692;9.144;2023-02-28T08:33:05;10.60;;;9.60;;
2652;SDS011;1336;48.692;9.144;2023-02-28T08:33:57;10.27;;;9.25;;
2652;SDS011;1336;48.692;9.144;2023-02-28T08:34:49;9.82;;;8.85;;
2652;SDS011;1336;48.692;9.144;2023-02-28T08:35:41;9.50;;;8.60;;
2652;SDS011;1336;48.692;9.144;2023-02-28T08:36:33;9.57;;;8.70;;
2652;SDS011;1336;48.692;9.144;2023-02-28T08:37:25;9.70;;;8.80;;
2652;SDS011;1336;48.692;9.144;2023-02-28T08:38:16;9.82;;;8.93;;
2652;SDS011;1336;48.692;9.144;2023-02-28T08:39:08;10.40;;;9.30;;
2652;SDS011;1336;48.692;9.144;2023-02-28T08:39:59;13.48;;;9.40;;
2652;SDS011;1336;48.692;9.144;2023-02-28T08:40:56;9.88;;;8.88;;
2652;SDS011;1336;48.692;9.144;2023-02-28T08:41:47;13.88;;;10.30;;
2652;SDS011;1336;48.692;9.144;2023-02-28T08:42:39;9.90;;;9.00;;
2652;SDS011;1336;48.692;9.144;2023-02-28T08:43:30;11.30;;;9.40;;
2652;SDS011;1336;48.692;9.144;2023-02-28T08:44:22;11.48;;;9.38;;
2652;SDS011;1336;48.692;9.144;2023-02-28T08:45:13;9.33;;;8.53;;
2652;SDS011;1336;48.692;9.144;2023-02-28T08:46:06;9.68;;;8.68;;
2652;SDS011;1336;48.692;9.144;2023-02-28T08:46:57;10.40;;;9.45;;
2652;SDS011;1336;48.692;9.144;2023-02-28T08:47:49;9.40;;;8.50;;
2652;SDS011;1336;48.692;9.144;2023-02-28T08:48:42;9.98;;;8.93;;
2652;SDS011;1336;48.692;9.144;2023-02-28T08:49:34;9.43;;;8.52;;
2652;SDS011;1336;48.692;9.144;2023-02-28T08:50:25;9.60;;;8.70;;
2652;SDS011;1336;48.692;9.144;2023-02-28T08:51:17;11.68;;;9.25;;
2652;SDS011;1336;48.692;9.144;2023-02-28T08:52:12;11.70;;;9.70;;
2652;SDS011;1336;48.692;9.144;2023-02-28T08:53:04;12.70;;;9.10;;
2652;SDS011;1336;48.692;9.144;2023-02-28T08:53:58;9.55;;;8.30;;
2652;SDS011;1336;48.692;9.144;2023-02-28T08:54:49;9.55;;;8.75;;
2652;SDS011;1336;48.692;9.144;2023-02-28T08:55:41;10.45;;;9.48;;
2652;SDS011;1336;48.692;9.144;2023-02-28T08:56:32;9.50;;;8.60;;
2652;SDS011;1336;48.692;9.144;2023-02-28T08:57:24;9.70;;;8.70;;
2652;SDS011;1336;48.692;9.144;2023-02-28T08:58:16;11.65;;;9.23;;
2652;SDS011;1336;48.692;9.144;2023-02-28T08:59:08;10.25;;;9.35;;
2652;SDS011;1336;48.692;9.144;2023-02-28T08:59:59;9.93;;;8.77;;
2652;SDS011;1336;48.692;9.144;2023-02-28T09:00:54;9.73;;;8.73;;
2652;SDS011;1336;48.692;9.144;2023-02-28T09:01:45;9.57;;;8.50;;
2652;SDS011;1336;48.692;9.144;2023-02-28T09:02:37;9.65;;;8.50;;
2652;SDS011;1336;48.692;9.144;2023-02-28T09:03:28;11.82;;;10.02;;
2652;SDS011;1336;48.692;9.144;2023-02-28T09:04:20;9.40;;;8.57;;
2652;SDS011;1336;48.692;9.144;2023-02-28T09:05:12;9.55;;;8.65;;
2652;SDS011;1336;48.692;9.144;2023-02-28T09:06:04;10.52;;;9.50;;
2652;SDS011;1336;48.692;9.144;2023-02-28T09:06:55;10.38;;;9.48;;
2652;SDS011;1336;48.692;9.144;2023-02-28T09:07:48;10.40;;;9.40;;
2652;SDS011;1336;48.692;9.144;2023-02-28T09:08:40;10.68;;;9.63;;
2652;SDS011;1336;48.692;9.144;2023-02-28T09:09:32;10.95;;;9.85;;
2652;SDS011;1336;48.692;9.144;2023-02-28T09:10:23;10.23;;;9.30;;
2652;SDS011;1336;48.692;9.144;2023-02-28T09:11:15;10.07;;;9.07;;
2652;SDS011;1336;48.692;9.144;2023-02-28T09:12:06;10.52;;;9.52;;
2652;SDS011;1336;48.692;9.144;2023-02-28T09:12:59;10.93;;;9.40;;
2652;SDS011;1336;48.692;9.144;2023-02-28T09:13:49;11.00;;;9.80;;
2652;SDS011;1336;48.692;9.144;2023-02-28T09:14:41;10.10;;;9.02;;
2652;SDS011;1336;48.692;9.144;2023-02-28T09:15:32;10.90;;;9.43;;
2652;SDS011;1336;48.692;9.144;2023-02-28T09:16:23;11.10;;;10.00;;
2652;SDS011;1336;48.692;9.144;2023-02-28T09:17:14;10.50;;;9.53;;
2652;SDS011;1336;48.692;9.144;2023-02-28T09:18:06;10.85;;;9.70;;
2652;SDS011;1336;48.692;9.144;2023-02-28T09:18:57;11.27;;;9.77;;
2652;SDS011;1336;48.692;9.144;2023-02-28T09:19:49;10.98;;;9.98;;
2652;SDS011;1336;48.692;9.144;2023-02-28T09:20:39;10.37;;;9.37;;
2652;SDS011;1336;48.692;9.144;2023-02-28T09:21:32;12.77;;;10.00;;
2652;SDS011;1336;48.692;9.144;2023-02-28T09:22:24;11.57;;;9.75;;
2652;SDS011;1336;48.692;9.144;2023-02-28T09:23:16;11.15;;;9.18;;
2652;SDS011;1336;48.692;9.144;2023-02-28T09:24:08;10.82;;;9.73;;
2652;SDS011;1336;48.692;9.144;2023-02-28T09:25:01;10.73;;;9.63;;
2652;SDS011;1336;48.692;9.144;2023-02-28T09:25:54;10.30;;;9.25;;
2652;SDS011;1336;48.692;9.144;2023-02-28T09:26:45;11.73;;;9.93;;
2652;SDS011;1336;48.692;9.144;2023-02-28T09:27:36;10.00;;;9.10;;
2652;SDS011;1336;48.692;9.144;2023-02-28T09:28:27;11.60;;;10.40;;
2652;SDS011;1336;48.692;9.144;2023-02-28T09:29:19;18.77;;;9.98;;
2652;SDS011;1336;48.692;9.144;2023-02-28T09:30:10;10.13;;;9.13;;
2652;SDS011;1336;48.692;9.144;2023-02-28T09:31:03;10.60;;;9.63;;
2652;SDS011;1336;48.692;9.144;2023-02-28T09:31:54;10.20;;;9.20;;
2652;SDS011;1336;48.692;9.144;2023-02-28T09:32:48;10.73;;;9.55;;
2652;SDS011;1336;48.692;9.144;2023-02-28T09:33:42;13.18;;;9.48;;
2652;SDS011;1336;48.692;9.144;2023-02-28T09:34:33;10.52;;;9.32;;
2652;SDS011;1336;48.692;9.144;2023-02-28T09:35:26;10.68;;;9.68;;
2652;SDS011;1336;48.692;9.144;2023-02-28T09:36:18;11.18;;;9.30;;
2652;SDS011;1336;48.692;9.144;2023-02-28T09:37:09;11.23;;;9.30;;
2652;SDS011;1336;48.692;9.144;2023-02-28T09:38:01;11.77;;;9.25;;
2652;SDS011;1336;48.692;9.144;2023-02-28T09:38:54;11.50;;;10.40;;
2652;SDS011;1336;48.692;9.144;2023-02-28T09:39:46;10.40;;;9.30;;
2652;SDS011;1336;48.692;9.144;2023-02-28T09:40:37;10.97;;;9.87;;
2652;SDS011;1336;48.692;9.144;2023-02-28T09:41:36;11.23;;;10.10;;
2652;SDS011;1336;48.692;9.144;2023-02-28T09:42:37;10.15;;;9.15;;
2652;SDS011;1336;48.692;9.144;2023-02-28T09:43:32;11.77;;;10.20;;
2652;SDS011;1336;48.692;9.144;2023-02-28T09:44:27;10.70;;;9.70;;
2652;SDS011;1336;48.692;9.144;2023-02-28T09:45:22;11.80;;;9.02;;
2652;SDS011;1336;48.692;9.144;2023-02-28T09:47:30;10.93;;;9.85;;
2652;SDS011;1336;48.692;9.144;2023-02-28T09:48:25;12.88;;;10.35;;
2652;SDS011;1336;48.692;9.144;2023-02-28T09:49:20;10.23;;;9.32;;
2652;SDS011;1336;48.692;9.144;2023-02-28T09:50:17;11.65;;;10.13;;
2652;SDS011;1336;48.692;9.144;2023-02-28T09:51:16;10.82;;;9.82;;
2652;SDS011;1336;48.692;9.144;2023-02-28T09:52:29;13.52;;;9.55;;
2652;SDS011;1336;48.692;9.144;2023-02-28T09:53:22;10.80;;;9.73;;
2652;SDS011;1336;48.692;9.144;2023-02-28T09:54:27;11.38;;;9.80;;
2652;SDS011;1336;48.692;9.144;2023-02-28T09:55:24;14.80;;;9.35;;
2652;SDS011;1336;48.692;9.144;2023-02-28T09:56:20;10.95;;;9.73;;
2652;SDS011;1336;48.692;9.144;2023-02-28T09:57:18;12.25;;;10.90;;
2652;SDS011;1336;48.692;9.144;2023-02-28T09:58:18;11.30;;;9.85;;
2652;SDS011;1336;48.692;9.144;2023-02-28T09:59:17;11.50;;;10.30;;
2652;SDS011;1336;48.692;9.144;2023-02-28T10:00:42;15.23;;;9.95;;
2652;SDS011;1336;48.692;9.144;2023-02-28T10:01:34;10.75;;;9.75;;
2652;SDS011;1336;48.692;9.144;2023-02-28T10:03:55;11.65;;;10.55;;
2652;SDS011;1336;48.692;9.144;2023-02-28T10:04:50;19.73;;;10.73;;
2652;SDS011;1336;48.692;9.144;2023-02-28T10:05:48;10.18;;;9.18;;
2652;SDS011;1336;48.692;9.144;2023-02-28T10:06:44;13.05;;;9.65;;
2652;SDS011;1336;48.692;9.144;2023-02-28T10:07:43;11.93;;;10.30;;
2652;SDS011;1336;48.692;9.144;2023-02-28T10:08:50;10.70;;;9.60;;
2652;SDS011;1336;48.692;9.144;2023-02-28T10:09:50;11.20;;;9.18;;
2652;SDS011;1336;48.692;9.144;2023-02-28T10:10:45;10.35;;;9.35;;
2652;SDS011;1336;48.692;9.144;2023-02-28T10:11:40;11.15;;;9.73;;
2652;SDS011;1336;48.692;9.144;2023-02-28T10:12:33;10.55;;;9.23;;
2652;SDS011;1336;48.692;9.144;2023-02-28T10:13:31;12.88;;;10.40;;
2652;SDS011;1336;48.692;9.144;2023-02-28T10:14:26;11.38;;;10.25;;
2652;SDS011;1336;48.692;9.144;2023-02-28T10:15:19;10.77;;;9.77;;
2652;SDS011;1336;48.692;9.144;2023-02-28T10:16:16;11.05;;;10.00;;
2652;SDS011;1336;48.692;9.144;2023-02-28T10:17:13;10.80;;;9.70;;
2652;SDS011;1336;48.692;9.144;2023-02-28T10:18:11;11.05;;;10.05;;
2652;SDS011;1336;48.692;9.144;2023-02-28T10:19:06;11.63;;;9.77;;
2652;SDS011;1336;48.692;9.144;2023-02-28T10:20:07;11.10;;;9.77;;
2652;SDS011;1336;48.692;9.144;2023-02-28T10:21:03;10.85;;;9.85;;
2652;SDS011;1336;48.692;9.144;2023-02-28T10:21:56;10.70;;;9.70;;
2652;SDS011;1336;48.692;9.144;2023-02-28T10:22:51;11.43;;;10.23;;
2652;SDS011;1336;48.692;9.144;2023-02-28T10:23:48;10.45;;;9.52;;
2652;SDS011;1336;48.692;9.144;2023-02-28T10:24:42;12.05;;;10.00;;
2652;SDS011;1336;48.692;9.144;2023-02-28T10:25:37;12.65;;;11.05;;
2652;SDS011;1336;48.692;9.144;2023-02-28T10:26:29;11.13;;;9.90;;
2652;SDS011;1336;48.692;9.144;2023-02-28T10:27:23;11.55;;;10.40;;
2652;SDS011;1336;48.692;9.144;2023-02-28T10:28:16;11.57;;;10.02;;
2652;SDS011;1336;48.692;9.144;2023-02-28T10:29:08;10.07;;;9.20;;
2652;SDS011;1336;48.692;9.144;2023-02-28T10:30:00;10.30;;;9.30;;
2652;SDS011;1336;48.692;9.144;2023-02-28T10:30:53;10.10;;;8.95;;
2652;SDS011;1336;48.692;9.144;2023-02-28T10:31:44;11.68;;;10.65;;
2652;SDS011;1336;48.692;9.144;2023-02-28T10:32:37;10.60;;;9.60;;
2652;SDS011;1336;48.692;9.144;2023-02-28T10:33:30;10.30;;;9.30;;
2652;SDS011;1336;48.692;9.144;2023-02-28T10:34:24;10.65;;;9.23;;
2652;SDS011;1336;48.692;9.144;2023-02-28T10:35:15;11.40;;;10.40;;
2652;SDS011;1336;48.692;9.144;2023-02-28T10:36:10;10.80;;;9.80;;
2652;SDS011;1336;48.692;9.144;2023-02-28T10:37:06;11.05;;;10.05;;
2652;SDS011;1336;48.692;9.144;2023-02-28T10:37:57;11.80;;;10.70;;
2652;SDS011;1336;48.692;9.144;2023-02-28T10:38:51;11.52;;;10.52;;
2652;SDS011;1336;48.692;9.144;2023-02-28T10:39:43;10.60;;;9.60;;
2652;SDS011;1336;48.692;9.144;2023-02-28T10:40:37;11.82;;;9.95;;
2652;SDS011;1336;48.692;9.144;2023-02-28T10:41:29;11.10;;;10.07;;
2652;SDS011;1336;48.692;9.144;2023-02-28T10:42:25;10.25;;;9.45;;
2652;SDS011;1336;48.692;9.144;2023-02-28T10:43:21;11.90;;;10.48;;
2652;SDS011;1336;48.692;9.144;2023-02-28T10:44:15;10.93;;;9.88;;
2652;SDS011;1336;48.692;9.144;2023-02-28T10:45:11;11.85;;;9.52;;
2652;SDS011;1336;48.692;9.144;2023-02-28T10:46:09;10.80;;;9.77;;
2652;SDS011;1336;48.692;9.144;2023-02-28T10:47:05;10.88;;;9.80;;
2652;SDS011;1336;48.692;9.144;2023-02-28T10:48:03;10.40;;;9.40;;
2652;SDS011;1336;48.692;9.144;2023-02-28T10:49:01;10.75;;;9.65;;
2652;SDS011;1336;48.692;9.144;2023-02-28T10:49:54;11.07;;;9.98;;
2652;SDS011;1336;48.692;9.144;2023-02-28T10:50:50;11.45;;;10.45;;
2652;SDS011;1336;48.692;9.144;2023-02-28T10:51:44;10.45;;;9.55;;
2652;SDS011;1336;48.692;9.144;2023-02-28T10:52:39;10.10;;;9.20;;
2652;SDS011;1336;48.692;9.144;2023-02-28T10:53:35;11.23;;;10.23;;
2652;SDS011;1336;48.692;9.144;2023-02-28T10:54:31;12.00;;;10.90;;
2652;SDS011;1336;48.692;9.144;2023-02-28T10:55:25;11.20;;;10.20;;
2652;SDS011;1336;48.692;9.144;2023-02-28T10:56:18;12.07;;;10.90;;
2652;SDS011;1336;48.692;9.144;2023-02-28T10:57:15;11.05;;;9.95;;
2652;SDS011;1336;48.692;9.144;2023-02-28T10:58:19;11.10;;;10.02;;
2652;SDS011;1336;48.692;9.144;2023-02-28T10:59:28;10.18;;;9.23;;
2652;SDS011;1336;48.692;9.144;2023-02-28T11:00:21;9.95;;;8.45;;
2652;SDS011;1336;48.692;9.144;2023-02-28T11:01:16;11.57;;;10.55;;
2652;SDS011;1336;48.692;9.144;2023-02-28T11:02:29;11.05;;;10.07;;
2652;SDS011;1336;48.692;9.144;2023-02-28T11:03:24;10.48;;;9.48;;
2652;SDS011;1336;48.692;9.144;2023-02-28T11:04:31;10.52;;;9.60;;
2652;SDS011;1336;48.692;9.144;2023-02-28T11:05:28;11.25;;;10.13;;
2652;SDS011;1336;48.692;9.144;2023-02-28T11:06:20;11.98;;;10.80;;
2652;SDS011;1336;48.692;9.144;2023-02-28T11:07:16;12.90;;;11.48;;
2652;SDS011;1336;48.692;9.144;2023-02-28T11:08:10;11.70;;;9.55;;
2652;SDS011;1336;48.692;9.144;2023-02-28T11:09:06;11.35;;;9.95;;
2652;SDS011;1336;48.692;9.144;2023-02-28T11:10:16;10.43;;;9.32;;
2652;SDS011;1336;48.692;9.144;2023-02-28T11:11:09;12.77;;;10.10;;
2652;SDS011;1336;48.692;9.144;2023-02-28T11:12:03;11.05;;;10.05;;
2652;SDS011;1336;48.692;9.144;2023-02-28T11:12:56;10.50;;;9.10;;
2652;SDS011;1336;48.692;9.144;2023-02-28T11:13:50;11.00;;;9.68;;
2652;SDS011;1336;48.692;9.144;2023-02-28T11:14:46;10.68;;;9.57;;
2652;SDS011;1336;48.692;9.144;2023-02-28T11:15:39;10.98;;;9.70;;
2652;SDS011;1336;48.692;9.144;2023-02-28T11:16:31;11.02;;;9.88;;
2652;SDS011;1336;48.692;9.144;2023-02-28T11:17:24;10.85;;;9.85;;
2652;SDS011;1336;48.692;9.144;2023-02-28T11:18:20;10.25;;;9.35;;
2652;SDS011;1336;48.692;9.144;2023-02-28T11:19:17;11.50;;;10.00;;
2652;SDS011;1336;48.692;9.144;2023-02-28T11:20:18;10.35;;;9.30;;
2652;SDS011;1336;48.692;9.144;2023-02-28T11:21:15;10.70;;;9.73;;
2652;SDS011;1336;48.692;9.144;2023-02-28T11:22:09;9.63;;;8.80;;
2652;SDS011;1336;48.692;9.144;2023-02-28T11:23:01;12.10;;;10.43;;
2652;SDS011;1336;48.692;9.144;2023-02-28T11:23:57;10.90;;;10.00;;
2652;SDS011;1336;48.692;9.144;2023-02-28T11:24:53;10.35;;;9.32;;
2652;SDS011;1336;48.692;9.144;2023-02-28T11:25:47;9.23;;;8.43;;
2652;SDS011;1336;48.692;9.144;2023-02-28T11:26:44;10.70;;;9.80;;
2652;SDS011;1336;48.692;9.144;2023-02-28T11:27:45;10.90;;;9.93;;
2652;SDS011;1336;48.692;9.144;2023-02-28T11:28:40;10.30;;;9.25;;
2652;SDS011;1336;48.692;9.144;2023-02-28T11:29:32;11.82;;;10.65;;
2652;SDS011;1336;48.692;9.144;2023-02-28T11:30:25;10.82;;;9.93;;